Time;durP1;ratioP1;P1;durP2;ratioP2;P2;SDS_P1;SDS_P2;PMS_P1;PMS_P2;Temp;Humidity;BMP_temperature;BMP_pressure;BME280_temperature;BME280_humidity;BME280_pressure;Samples;Min_cycle;Max_cycle;Signal;HPM_P1;HPM_P2
2023/04/15 00:01:36;;;;;;;;;;;;;;;;;;7367292;19;1858;-66
2023/04/15 00:04:04;;;;;;;;;;;;;;;;;;7367110;19;2104;-63
2023/04/15 00:06:32;;;;;;;;;;;;;;;;;;7367817;19;1570;-65
2023/04/15 00:09:00;;;;;;;;;;;;;;;;;;7366310;19;1856;-65
2023/04/15 00:11:29;;;;;;;;;;;;;;;;;;7364647;19;807;-66
2023/04/15 00:13:57;;;;;;;;;;;;;;;;;;7366292;19;1829;-64
2023/04/15 00:16:25;;;;;;;;;;;;;;;;;;7364044;19;1620;-66
2023/04/15 00:18:53;;;;;;;;;;;;;;;;;;7365945;19;1840;-66
2023/04/15 00:21:21;;;;;;;;;;;;;;;;;;7366130;19;1864;-65
2023/04/15 00:23:52;;;;;;;;;;;;;;;;;;7365191;19;1811;-66
2023/04/15 00:26:21;;;;;;;;;;;;;;;;;;7365271;19;1669;-65
2023/04/15 00:28:50;;;;;;;;;;;;;;;;;;7364879;19;1808;-66
2023/04/15 00:31:19;;;;;;;;;;;;;;;;;;7363857;19;1795;-66
2023/04/15 00:33:47;;;;;;;;;;;;;;;;;;7366071;19;2053;-64
2023/04/15 00:36:15;;;;;;;;;;;;;;;;;;7364407;19;1789;-65
2023/04/15 00:38:44;;;;;;;;;;;;;;;;;;7363436;19;1788;-65
2023/04/15 00:41:12;;;;;;;;;;;;;;;;;;7366828;19;1806;-66
2023/04/15 00:43:41;;;;;;;;;;;;;;;;;;7362380;19;1845;-63
2023/04/15 00:46:09;;;;;;;;;;;;;;;;;;7363230;19;1856;-65
2023/04/15 00:48:37;;;;;;;;;;;;;;;;;;7365009;19;2007;-63
2023/04/15 00:51:06;;;;;;;;;;;;;;;;;;7362434;19;2066;-64
2023/04/15 00:53:34;;;;;;;;;;;;;;;;;;7364638;19;1818;-64
2023/04/15 00:56:02;;;;;;;;;;;;;;;;;;7363430;19;803;-65
2023/04/15 00:58:30;;;;;;;;;;;;;;;;;;7365974;19;1835;-66
2023/04/15 01:00:58;;;;;;;;;;;;;;;;;;7361289;19;1856;-65
2023/04/15 01:03:26;;;;;;;;;;;;;;;;;;7362206;19;1838;-65
2023/04/15 01:05:57;;;;;;;;;;;;;;;;;;7363106;19;829;-65
2023/04/15 01:08:25;;;;;;;;;;;;;;;;;;7370150;19;2053;-65
2023/04/15 01:10:53;;;;;;;;;;;;;;;;;;7370105;19;2083;-65
2023/04/15 01:13:21;;;;;;;;;;;;;;;;;;7370952;19;1661;-65
2023/04/15 01:15:50;;;;;;;;;;;;;;;;;;7373124;19;1992;-66
2023/04/15 01:18:19;;;;;;;;;;;;;;;;;;7371779;19;1800;-66
2023/04/15 01:20:47;;;;;;;;;;;;;;;;;;7369321;19;1842;-65
2023/04/15 01:23:15;;;;;;;;;;;;;;;;;;7367728;19;1853;-66
2023/04/15 01:25:43;;;;;;;;;;;;;;;;;;7370962;19;2050;-65
2023/04/15 01:28:12;;;;;;;;;;;;;;;;;;7369202;19;2077;-65
2023/04/15 01:30:40;;;;;;;;;;;;;;;;;;7369032;19;1873;-65
2023/04/15 01:33:08;;;;;;;;;;;;;;;;;;7370546;19;2057;-65
2023/04/15 01:35:37;;;;;;;;;;;;;;;;;;7371475;19;1853;-65
2023/04/15 01:38:06;;;;;;;;;;;;;;;;;;7367205;19;2043;-66
2023/04/15 01:40:34;;;;;;;;;;;;;;;;;;7369808;19;1879;-65
2023/04/15 01:43:02;;;;;;;;;;;;;;;;;;7370235;19;1842;-64
2023/04/15 01:45:30;;;;;;;;;;;;;;;;;;7371692;19;1685;-65
2023/04/15 01:47:59;;;;;;;;;;;;;;;;;;7367082;19;1862;-65
2023/04/15 01:50:27;;;;;;;;;;;;;;;;;;7367640;19;1770;-66
2023/04/15 01:52:56;;;;;;;;;;;;;;;;;;7368172;19;838;-64
2023/04/15 01:55:25;;;;;;;;;;;;;;;;;;7372719;19;1593;-65
2023/04/15 01:57:54;;;;;;;;;;;;;;;;;;7365733;19;887;-66
2023/04/15 02:00:22;;;;;;;;;;;;;;;;;;7364830;19;1278;-66
2023/04/15 02:02:51;;;;;;;;;;;;;;;;;;7367268;19;1852;-65
2023/04/15 02:05:19;;;;;;;;;;;;;;;;;;7370567;19;1853;-64
2023/04/15 02:07:49;;;;;;;;;;;;;;;;;;7367947;19;1831;-65
2023/04/15 02:10:17;;;;;;;;;;;;;;;;;;7368562;19;1816;-65
2023/04/15 02:12:45;;;;;;;;;;;;;;;;;;7368873;19;1830;-66
2023/04/15 02:15:13;;;;;;;;;;;;;;;;;;7368194;19;2029;-64
2023/04/15 02:17:44;;;;;;;;;;;;;;;;;;7367650;19;1828;-65
2023/04/15 02:20:13;;;;;;;;;;;;;;;;;;7367356;19;1792;-63
2023/04/15 02:22:41;;;;;;;;;;;;;;;;;;7369415;19;1857;-64
2023/04/15 02:25:09;;;;;;;;;;;;;;;;;;7368631;19;1885;-64
2023/04/15 02:27:38;;;;;;;;;;;;;;;;;;7367580;19;1818;-64
2023/04/15 02:30:06;;;;;;;;;;;;;;;;;;7366398;19;2017;-64
2023/04/15 02:32:36;;;;;;;;;;;;;;;;;;7367972;19;1587;-64
2023/04/15 02:35:05;;;;;;;;;;;;;;;;;;7371032;19;1829;-65
2023/04/15 02:37:35;;;;;;;;;;;;;;;;;;7366216;19;1763;-65
2023/04/15 02:40:06;;;;;;;;;;;;;;;;;;7366517;19;1850;-64
2023/04/15 02:42:35;;;;;;;;;;;;;;;;;;7366860;19;2065;-65
2023/04/15 02:45:03;;;;;;;;;;;;;;;;;;7368544;19;2030;-65
2023/04/15 02:47:34;;;;;;;;;;;;;;;;;;7368985;19;1740;-65
2023/04/15 02:50:03;;;;;;;;;;;;;;;;;;7366126;19;1872;-65
2023/04/15 02:52:32;;;;;;;;;;;;;;;;;;7367522;19;1865;-66
2023/04/15 02:55:03;;;;;;;;;;;;;;;;;;7365287;19;782;-64
2023/04/15 02:57:31;;;;;;;;;;;;;;;;;;7367097;19;1820;-65
2023/04/15 03:00:05;;;;;;;;;;;;;;;;;;7365764;19;1788;-65
2023/04/15 03:02:33;;;;;;;;;;;;;;;;;;7368039;19;1850;-65
2023/04/15 03:05:01;;;;;;;;;;;;;;;;;;7365341;19;1817;-64
2023/04/15 03:07:30;;;;;;;;;;;;;;;;;;7364246;19;2036;-64
2023/04/15 03:09:58;;;;;;;;;;;;;;;;;;7364441;19;1310;-64
2023/04/15 03:12:27;;;;;;;;;;;;;;;;;;7365057;19;1893;-64
2023/04/15 03:14:57;;;;;;;;;;;;;;;;;;7368665;19;1919;-64
2023/04/15 03:17:33;;;;;;;;;;;;;;;;;;7364458;19;1841;-64
2023/04/15 03:20:01;;;;;;;;;;;;;;;;;;7365930;19;1835;-64
2023/04/15 03:22:30;;;;;;;;;;;;;;;;;;7365961;19;1826;-64
2023/04/15 03:24:58;;;;;;;;;;;;;;;;;;7365279;19;858;-65
2023/04/15 03:27:26;;;;;;;;;;;;;;;;;;7364505;19;1957;-64
2023/04/15 03:29:57;;;;;;;;;;;;;;;;;;7365825;19;1946;-65
2023/04/15 03:32:26;;;;;;;;;;;;;;;;;;7367227;19;1800;-65
2023/04/15 03:34:55;;;;;;;;;;;;;;;;;;7367534;19;1832;-65
2023/04/15 03:37:23;;;;;;;;;;;;;;;;;;7365983;19;1848;-65
2023/04/15 03:39:51;;;;;;;;;;;;;;;;;;7367127;19;1903;-65
2023/04/15 03:42:19;;;;;;;;;;;;;;;;;;7365888;19;1838;-66
2023/04/15 03:44:47;;;;;;;;;;;;;;;;;;7368418;19;1751;-64
2023/04/15 03:47:16;;;;;;;;;;;;;;;;;;7367706;19;1840;-64
2023/04/15 03:49:44;;;;;;;;;;;;;;;;;;7366467;19;1766;-64
2023/04/15 03:52:12;;;;;;;;;;;;;;;;;;7369639;19;1792;-66
2023/04/15 03:54:40;;;;;;;;;;;;;;;;;;7368556;19;1750;-65
2023/04/15 03:57:08;;;;;;;;;;;;;;;;;;7368657;19;1808;-65
2023/04/15 03:59:37;;;;;;;;;;;;;;;;;;7366865;19;2313;-66
2023/04/15 04:02:05;;;;;;;;;;;;;;;;;;7367792;19;2017;-66
2023/04/15 04:04:33;;;;;;;;;;;;;;;;;;7366399;19;2177;-66
2023/04/15 04:07:01;;;;;;;;;;;;;;;;;;7363519;19;830;-66
2023/04/15 04:09:29;;;;;;;;;;;;;;;;;;7365724;19;1833;-66
2023/04/15 04:11:57;;;;;;;;;;;;;;;;;;7366516;19;1860;-66
2023/04/15 04:14:28;;;;;;;;;;;;;;;;;;7368558;19;1912;-66
2023/04/15 04:16:56;;;;;;;;;;;;;;;;;;7365666;19;2044;-66
2023/04/15 04:19:25;;;;;;;;;;;;;;;;;;7366234;19;1677;-64
2023/04/15 04:21:53;;;;;;;;;;;;;;;;;;7364528;19;872;-66
2023/04/15 04:24:21;;;;;;;;;;;;;;;;;;7365940;19;1846;-65
2023/04/15 04:26:49;;;;;;;;;;;;;;;;;;7364059;19;822;-66
2023/04/15 04:29:17;;;;;;;;;;;;;;;;;;7365565;19;2176;-65
2023/04/15 04:31:47;;;;;;;;;;;;;;;;;;7368041;19;1998;-66
2023/04/15 04:34:15;;;;;;;;;;;;;;;;;;7366982;19;1816;-65
2023/04/15 04:36:43;;;;;;;;;;;;;;;;;;7366012;19;1770;-67
2023/04/15 04:39:11;;;;;;;;;;;;;;;;;;7364541;19;2054;-66
2023/04/15 04:41:40;;;;;;;;;;;;;;;;;;7367261;19;1791;-66
2023/04/15 04:44:08;;;;;;;;;;;;;;;;;;7370430;19;1863;-64
2023/04/15 04:46:36;;;;;;;;;;;;;;;;;;7372219;19;1648;-66
2023/04/15 04:49:04;;;;;;;;;;;;;;;;;;7370208;19;2077;-66
2023/04/15 04:51:32;;;;;;;;;;;;;;;;;;7372568;19;1842;-66
2023/04/15 04:54:00;;;;;;;;;;;;;;;;;;7371247;19;1769;-66
2023/04/15 04:56:29;;;;;;;;;;;;;;;;;;7369890;19;933;-66
2023/04/15 04:58:57;;;;;;;;;;;;;;;;;;7370364;19;1821;-64
2023/04/15 05:01:25;;;;;;;;;;;;;;;;;;7371733;19;1807;-66
2023/04/15 05:03:53;;;;;;;;;;;;;;;;;;7372130;19;2017;-65
2023/04/15 05:06:21;;;;;;;;;;;;;;;;;;7369899;19;876;-66
2023/04/15 05:08:50;;;;;;;;;;;;;;;;;;7370950;19;1845;-67
2023/04/15 05:11:18;;;;;;;;;;;;;;;;;;7372953;19;1821;-65
2023/04/15 05:13:46;;;;;;;;;;;;;;;;;;7370651;19;2210;-64
2023/04/15 05:16:14;;;;;;;;;;;;;;;;;;7371845;19;2060;-66
2023/04/15 05:18:42;;;;;;;;;;;;;;;;;;7368632;19;1668;-65
2023/04/15 05:21:11;;;;;;;;;;;;;;;;;;7370346;19;1728;-64
2023/04/15 05:23:39;;;;;;;;;;;;;;;;;;7369456;19;1891;-65
2023/04/15 05:26:07;;;;;;;;;;;;;;;;;;7370037;19;1748;-67
2023/04/15 05:28:35;;;;;;;;;;;;;;;;;;7369303;19;1793;-65
2023/04/15 05:31:03;;;;;;;;;;;;;;;;;;7367171;19;1900;-66
2023/04/15 05:33:31;;;;;;;;;;;;;;;;;;7369192;19;1803;-66
2023/04/15 05:36:00;;;;;;;;;;;;;;;;;;7368424;19;830;-66
2023/04/15 05:38:28;;;;;;;;;;;;;;;;;;7370695;19;2101;-65
2023/04/15 05:40:56;;;;;;;;;;;;;;;;;;7367849;19;1843;-65
2023/04/15 05:43:24;;;;;;;;;;;;;;;;;;7371448;19;1903;-65
2023/04/15 05:45:52;;;;;;;;;;;;;;;;;;7369400;19;1824;-65
2023/04/15 05:48:21;;;;;;;;;;;;;;;;;;7368298;19;1707;-64
2023/04/15 05:50:49;;;;;;;;;;;;;;;;;;7367174;19;1828;-65
2023/04/15 05:53:17;;;;;;;;;;;;;;;;;;7369438;19;1939;-64
2023/04/15 05:55:45;;;;;;;;;;;;;;;;;;7368637;19;1628;-64
2023/04/15 05:58:13;;;;;;;;;;;;;;;;;;7369520;19;2061;-66
2023/04/15 06:00:42;;;;;;;;;;;;;;;;;;7367455;19;1719;-64
2023/04/15 06:03:11;;;;;;;;;;;;;;;;;;7369871;19;1859;-66
2023/04/15 06:05:39;;;;;;;;;;;;;;;;;;7370129;19;1842;-65
2023/04/15 06:08:07;;;;;;;;;;;;;;;;;;7368895;19;1828;-65
2023/04/15 06:10:35;;;;;;;;;;;;;;;;;;7365283;19;1293;-67
2023/04/15 06:13:04;;;;;;;;;;;;;;;;;;7368217;19;941;-67
2023/04/15 06:15:32;;;;;;;;;;;;;;;;;;7365975;19;830;-65
2023/04/15 06:18:00;;;;;;;;;;;;;;;;;;7368153;19;2025;-64
2023/04/15 06:20:28;;;;;;;;;;;;;;;;;;7366002;19;1283;-65
2023/04/15 06:22:56;;;;;;;;;;;;;;;;;;7367115;19;822;-65
2023/04/15 06:25:25;;;;;;;;;;;;;;;;;;7364057;19;1855;-64
2023/04/15 06:27:53;;;;;;;;;;;;;;;;;;7365766;19;1996;-64
2023/04/15 06:30:21;;;;;;;;;;;;;;;;;;7367447;19;2029;-64
2023/04/15 06:32:49;;;;;;;;;;;;;;;;;;7364102;19;773;-65
2023/04/15 06:35:17;;;;;;;;;;;;;;;;;;7366932;19;822;-66
2023/04/15 06:37:46;;;;;;;;;;;;;;;;;;7366176;19;799;-64
2023/04/15 06:40:14;;;;;;;;;;;;;;;;;;7365785;19;1294;-65
2023/04/15 06:42:42;;;;;;;;;;;;;;;;;;7367524;19;857;-65
2023/04/15 06:45:10;;;;;;;;;;;;;;;;;;7364503;19;1877;-64
2023/04/15 06:47:39;;;;;;;;;;;;;;;;;;7366767;19;835;-63
2023/04/15 06:50:08;;;;;;;;;;;;;;;;;;7366140;19;1283;-63
2023/04/15 06:52:36;;;;;;;;;;;;;;;;;;7367823;19;864;-63
2023/04/15 06:55:04;;;;;;;;;;;;;;;;;;7367402;19;905;-64
2023/04/15 06:57:32;;;;;;;;;;;;;;;;;;7366743;19;822;-64
2023/04/15 07:00:00;;;;;;;;;;;;;;;;;;7364602;19;1341;-64
2023/04/15 07:02:28;;;;;;;;;;;;;;;;;;7367195;19;2044;-64
2023/04/15 07:04:57;;;;;;;;;;;;;;;;;;7362019;19;1850;-65
2023/04/15 07:07:25;;;;;;;;;;;;;;;;;;7365221;19;991;-64
2023/04/15 07:09:53;;;;;;;;;;;;;;;;;;7364271;19;1277;-64
2023/04/15 07:12:21;;;;;;;;;;;;;;;;;;7366089;19;767;-65
2023/04/15 07:14:49;;;;;;;;;;;;;;;;;;7368939;19;1769;-63
2023/04/15 07:17:18;;;;;;;;;;;;;;;;;;7367327;19;767;-65
2023/04/15 07:19:46;;;;;;;;;;;;;;;;;;7362964;19;1306;-64
2023/04/15 07:22:14;;;;;;;;;;;;;;;;;;7366122;19;854;-66
2023/04/15 07:24:42;;;;;;;;;;;;;;;;;;7367209;19;2153;-66
2023/04/15 07:27:10;;;;;;;;;;;;;;;;;;7366402;19;1640;-65
2023/04/15 07:29:39;;;;;;;;;;;;;;;;;;7363619;19;1255;-64
2023/04/15 07:32:09;;;;;;;;;;;;;;;;;;7367302;19;912;-65
2023/04/15 07:34:37;;;;;;;;;;;;;;;;;;7369530;19;1824;-66
2023/04/15 07:37:05;;;;;;;;;;;;;;;;;;7365764;19;857;-66
2023/04/15 07:39:33;;;;;;;;;;;;;;;;;;7364278;19;1258;-66
2023/04/15 07:42:02;;;;;;;;;;;;;;;;;;7365657;19;850;-67
2023/04/15 07:44:30;;;;;;;;;;;;;;;;;;7367493;19;1853;-67
2023/04/15 07:46:59;;;;;;;;;;;;;;;;;;7365447;19;822;-66
2023/04/15 07:49:27;;;;;;;;;;;;;;;;;;7364144;19;1269;-65
2023/04/15 07:51:56;;;;;;;;;;;;;;;;;;7364548;19;770;-65
2023/04/15 07:54:24;;;;;;;;;;;;;;;;;;7367390;19;2061;-66
2023/04/15 07:56:52;;;;;;;;;;;;;;;;;;7366111;19;822;-66
2023/04/15 07:59:21;;;;;;;;;;;;;;;;;;7368234;19;1756;-63
2023/04/15 08:01:49;;;;;;;;;;;;;;;;;;7365150;19;804;-66
2023/04/15 08:04:17;;;;;;;;;;;;;;;;;;7364361;19;1853;-65
2023/04/15 08:06:47;;;;;;;;;;;;;;;;;;7363888;19;1143;-67
2023/04/15 08:09:15;;;;;;;;;;;;;;;;;;7364244;19;1281;-65
2023/04/15 08:11:43;;;;;;;;;;;;;;;;;;7365021;19;770;-66
2023/04/15 08:14:11;;;;;;;;;;;;;;;;;;7364654;19;830;-66
2023/04/15 08:16:40;;;;;;;;;;;;;;;;;;7361160;19;818;-66
2023/04/15 08:19:08;;;;;;;;;;;;;;;;;;7362940;19;1242;-67
2023/04/15 08:21:36;;;;;;;;;;;;;;;;;;7364765;19;769;-67
2023/04/15 08:24:04;;;;;;;;;;;;;;;;;;7364506;19;1847;-66
2023/04/15 08:26:32;;;;;;;;;;;;;;;;;;7364479;19;834;-65
2023/04/15 08:29:01;;;;;;;;;;;;;;;;;;7363077;19;1348;-65
2023/04/15 08:31:29;;;;;;;;;;;;;;;;;;7364713;19;850;-65
2023/04/15 08:33:58;;;;;;;;;;;;;;;;;;7363827;19;814;-66
2023/04/15 08:36:26;;;;;;;;;;;;;;;;;;7363391;19;795;-65
2023/04/15 08:38:54;;;;;;;;;;;;;;;;;;7362855;19;1348;-67
2023/04/15 08:41:23;;;;;;;;;;;;;;;;;;7364090;19;782;-66
2023/04/15 08:43:51;;;;;;;;;;;;;;;;;;7363890;19;1857;-66
2023/04/15 08:46:19;;;;;;;;;;;;;;;;;;7363633;19;810;-66
2023/04/15 08:48:47;;;;;;;;;;;;;;;;;;7363355;19;1846;-66
2023/04/15 08:51:15;;;;;;;;;;;;;;;;;;7363993;19;826;-66
2023/04/15 08:53:45;;;;;;;;;;;;;;;;;;7363236;19;899;-65
2023/04/15 08:56:14;;;;;;;;;;;;;;;;;;7363942;19;794;-66
2023/04/15 08:58:42;;;;;;;;;;;;;;;;;;7362224;19;784;-66
2023/04/15 09:01:10;;;;;;;;;;;;;;;;;;7359563;19;1416;-66
2023/04/15 09:03:38;;;;;;;;;;;;;;;;;;7361917;19;783;-66
2023/04/15 09:06:07;;;;;;;;;;;;;;;;;;7359969;19;1849;-65
2023/04/15 09:08:36;;;;;;;;;;;;;;;;;;7362671;19;781;-66
2023/04/15 09:11:04;;;;;;;;;;;;;;;;;;7360238;19;1373;-67
2023/04/15 09:13:32;;;;;;;;;;;;;;;;;;7362619;19;809;-67
2023/04/15 09:16:00;;;;;;;;;;;;;;;;;;7361954;19;797;-66
2023/04/15 09:18:29;;;;;;;;;;;;;;;;;;7361191;19;786;-66
2023/04/15 09:20:57;;;;;;;;;;;;;;;;;;7358775;19;1242;-65
2023/04/15 09:23:26;;;;;;;;;;;;;;;;;;7362967;19;826;-66
2023/04/15 09:25:54;;;;;;;;;;;;;;;;;;7361237;19;1834;-66
2023/04/15 09:28:22;;;;;;;;;;;;;;;;;;7363616;19;778;-66
2023/04/15 09:30:50;;;;;;;;;;;;;;;;;;7367068;19;1279;-66
2023/04/15 09:33:18;;;;;;;;;;;;;;;;;;7369450;19;832;-66
2023/04/15 09:35:46;;;;;;;;;;;;;;;;;;7369465;19;803;-66
2023/04/15 09:38:15;;;;;;;;;;;;;;;;;;7369189;19;880;-66
2023/04/15 09:40:43;;;;;;;;;;;;;;;;;;7366435;19;1333;-66
2023/04/15 09:43:11;;;;;;;;;;;;;;;;;;7370070;19;761;-66
2023/04/15 09:45:39;;;;;;;;;;;;;;;;;;7367667;19;1863;-65
2023/04/15 09:48:07;;;;;;;;;;;;;;;;;;7367200;19;852;-65
2023/04/15 09:50:36;;;;;;;;;;;;;;;;;;7366791;19;1806;-64
2023/04/15 09:53:04;;;;;;;;;;;;;;;;;;7368218;19;857;-65
2023/04/15 09:55:32;;;;;;;;;;;;;;;;;;7368351;19;807;-66
2023/04/15 09:58:00;;;;;;;;;;;;;;;;;;7367963;19;1261;-66
2023/04/15 10:00:29;;;;;;;;;;;;;;;;;;7367123;19;1274;-66
2023/04/15 10:02:57;;;;;;;;;;;;;;;;;;7368222;19;888;-65
2023/04/15 10:05:25;;;;;;;;;;;;;;;;;;7366949;19;1871;-66
2023/04/15 10:07:53;;;;;;;;;;;;;;;;;;7367207;19;801;-66
2023/04/15 10:10:21;;;;;;;;;;;;;;;;;;7373021;19;1520;-66
2023/04/15 10:12:50;;;;;;;;;;;;;;;;;;7368307;19;814;-65
2023/04/15 10:15:18;;;;;;;;;;;;;;;;;;7369087;19;1814;-65
2023/04/15 10:17:46;;;;;;;;;;;;;;;;;;7366675;19;860;-66
2023/04/15 10:20:14;;;;;;;;;;;;;;;;;;7365590;19;1231;-66
2023/04/15 10:22:42;;;;;;;;;;;;;;;;;;7367791;19;853;-65
2023/04/15 10:25:11;;;;;;;;;;;;;;;;;;7365768;19;1833;-63
2023/04/15 10:27:39;;;;;;;;;;;;;;;;;;7366557;19;804;-63
2023/04/15 10:30:07;;;;;;;;;;;;;;;;;;7365234;19;1281;-65
2023/04/15 10:32:36;;;;;;;;;;;;;;;;;;7367298;19;842;-65
2023/04/15 10:35:04;;;;;;;;;;;;;;;;;;7368135;19;815;-68
2023/04/15 10:37:32;;;;;;;;;;;;;;;;;;7367106;19;843;-67
2023/04/15 10:40:01;;;;;;;;;;;;;;;;;;7367492;19;1805;-64
2023/04/15 10:42:29;;;;;;;;;;;;;;;;;;7366160;19;866;-64
2023/04/15 10:44:57;;;;;;;;;;;;;;;;;;7368115;19;1888;-64
2023/04/15 10:47:26;;;;;;;;;;;;;;;;;;7366249;19;821;-65
2023/04/15 10:49:54;;;;;;;;;;;;;;;;;;7364166;19;1321;-66
2023/04/15 10:52:22;;;;;;;;;;;;;;;;;;7365925;19;854;-65
2023/04/15 10:54:50;;;;;;;;;;;;;;;;;;7368571;19;2039;-64
2023/04/15 10:57:18;;;;;;;;;;;;;;;;;;7363758;19;783;-65
2023/04/15 10:59:46;;;;;;;;;;;;;;;;;;7366122;19;2051;-64
2023/04/15 11:02:14;;;;;;;;;;;;;;;;;;7366784;19;804;-66
2023/04/15 11:04:43;;;;;;;;;;;;;;;;;;7369878;19;1850;-65
2023/04/15 11:07:11;;;;;;;;;;;;;;;;;;7365804;19;787;-65
2023/04/15 11:09:39;;;;;;;;;;;;;;;;;;7366267;19;2078;-65
2023/04/15 11:12:08;;;;;;;;;;;;;;;;;;7367021;19;866;-64
2023/04/15 11:14:37;;;;;;;;;;;;;;;;;;7366447;19;759;-65
2023/04/15 11:17:05;;;;;;;;;;;;;;;;;;7369778;19;1577;-65
2023/04/15 11:19:33;;;;;;;;;;;;;;;;;;7368382;19;1889;-66
2023/04/15 11:22:01;;;;;;;;;;;;;;;;;;7365768;19;820;-65
2023/04/15 11:24:29;;;;;;;;;;;;;;;;;;7366546;19;900;-65
2023/04/15 11:26:57;;;;;;;;;;;;;;;;;;7364695;19;2046;-65
2023/04/15 11:29:25;;;;;;;;;;;;;;;;;;7364326;19;1337;-66
2023/04/15 11:31:54;;;;;;;;;;;;;;;;;;7366039;19;891;-66
2023/04/15 11:34:22;;;;;;;;;;;;;;;;;;7369623;19;1680;-65
2023/04/15 11:36:50;;;;;;;;;;;;;;;;;;7366707;19;2008;-65
2023/04/15 11:39:18;;;;;;;;;;;;;;;;;;7363947;19;1272;-66
2023/04/15 11:41:47;;;;;;;;;;;;;;;;;;7365231;19;838;-65
2023/04/15 11:44:15;;;;;;;;;;;;;;;;;;7365147;19;857;-64
2023/04/15 11:46:43;;;;;;;;;;;;;;;;;;7364617;19;2019;-64
2023/04/15 11:49:11;;;;;;;;;;;;;;;;;;7364254;19;1282;-64
2023/04/15 11:51:39;;;;;;;;;;;;;;;;;;7364868;19;769;-65
2023/04/15 11:54:07;;;;;;;;;;;;;;;;;;7365277;19;806;-65
2023/04/15 11:56:36;;;;;;;;;;;;;;;;;;7365409;19;1996;-63
2023/04/15 11:59:04;;;;;;;;;;;;;;;;;;7364587;19;1314;-66
2023/04/15 12:01:32;;;;;;;;;;;;;;;;;;7364588;19;830;-66
2023/04/15 12:04:01;;;;;;;;;;;;;;;;;;7367321;19;2018;-65
2023/04/15 12:06:29;;;;;;;;;;;;;;;;;;7364534;19;1841;-65
2023/04/15 12:08:57;;;;;;;;;;;;;;;;;;7366836;19;1831;-65
2023/04/15 12:11:26;;;;;;;;;;;;;;;;;;7364520;19;821;-64
2023/04/15 12:13:54;;;;;;;;;;;;;;;;;;7364839;19;881;-65
2023/04/15 12:16:22;;;;;;;;;;;;;;;;;;7365874;19;1865;-65
2023/04/15 12:18:50;;;;;;;;;;;;;;;;;;7364217;19;1353;-65
2023/04/15 12:21:19;;;;;;;;;;;;;;;;;;7364448;19;818;-66
2023/04/15 12:23:47;;;;;;;;;;;;;;;;;;7366625;19;1846;-66
2023/04/15 12:26:15;;;;;;;;;;;;;;;;;;7362201;19;1834;-65
2023/04/15 12:28:44;;;;;;;;;;;;;;;;;;7363166;19;804;-66
2023/04/15 12:31:12;;;;;;;;;;;;;;;;;;7360466;19;1818;-63
2023/04/15 12:33:40;;;;;;;;;;;;;;;;;;7366803;19;2149;-66
2023/04/15 12:36:09;;;;;;;;;;;;;;;;;;7367310;19;1829;-65
2023/04/15 12:38:37;;;;;;;;;;;;;;;;;;7366447;19;841;-66
2023/04/15 12:41:05;;;;;;;;;;;;;;;;;;7361576;19;1333;-65
2023/04/15 12:43:33;;;;;;;;;;;;;;;;;;7363989;19;834;-65
2023/04/15 12:46:01;;;;;;;;;;;;;;;;;;7361485;19;1881;-65
2023/04/15 12:48:29;;;;;;;;;;;;;;;;;;7363026;19;794;-65
2023/04/15 12:50:58;;;;;;;;;;;;;;;;;;7358371;19;1357;-65
2023/04/15 12:53:26;;;;;;;;;;;;;;;;;;7362611;19;760;-65
2023/04/15 12:55:54;;;;;;;;;;;;;;;;;;7362018;19;857;-65
2023/04/15 12:58:22;;;;;;;;;;;;;;;;;;7362487;19;863;-65
2023/04/15 13:00:51;;;;;;;;;;;;;;;;;;7359773;19;1283;-66
2023/04/15 13:03:19;;;;;;;;;;;;;;;;;;7364162;19;853;-64
2023/04/15 13:05:47;;;;;;;;;;;;;;;;;;7370058;19;1853;-64
2023/04/15 13:08:15;;;;;;;;;;;;;;;;;;7371471;19;795;-64
2023/04/15 13:10:43;;;;;;;;;;;;;;;;;;7367698;19;1286;-66
2023/04/15 13:13:12;;;;;;;;;;;;;;;;;;7369634;19;783;-66
2023/04/15 13:15:40;;;;;;;;;;;;;;;;;;7368735;19;842;-66
2023/04/15 13:18:08;;;;;;;;;;;;;;;;;;7368254;19;853;-66
2023/04/15 13:20:36;;;;;;;;;;;;;;;;;;7368156;19;1353;-67
2023/04/15 13:23:04;;;;;;;;;;;;;;;;;;7369002;19;802;-66
2023/04/15 13:25:33;;;;;;;;;;;;;;;;;;7367807;19;1845;-66
2023/04/15 13:28:01;;;;;;;;;;;;;;;;;;7369227;19;716;-66
2023/04/15 13:30:30;;;;;;;;;;;;;;;;;;7367818;19;1364;-66
2023/04/15 13:32:58;;;;;;;;;;;;;;;;;;7369778;19;699;-64
2023/04/15 13:35:26;;;;;;;;;;;;;;;;;;7369661;19;854;-65
2023/04/15 13:37:54;;;;;;;;;;;;;;;;;;7368639;19;726;-65
2023/04/15 13:40:22;;;;;;;;;;;;;;;;;;7368509;19;1317;-65
2023/04/15 13:42:50;;;;;;;;;;;;;;;;;;7369380;19;927;-65
2023/04/15 13:45:19;;;;;;;;;;;;;;;;;;7370639;19;1845;-65
2023/04/15 13:47:47;;;;;;;;;;;;;;;;;;7371884;19;818;-64
2023/04/15 13:50:15;;;;;;;;;;;;;;;;;;7370776;19;1258;-64
2023/04/15 13:52:43;;;;;;;;;;;;;;;;;;7373756;19;795;-65
2023/04/15 13:55:11;;;;;;;;;;;;;;;;;;7373374;19;779;-66
2023/04/15 13:57:39;;;;;;;;;;;;;;;;;;7370340;19;858;-66
2023/04/15 14:00:08;;;;;;;;;;;;;;;;;;7369426;19;1333;-66
2023/04/15 14:02:36;;;;;;;;;;;;;;;;;;7373780;19;809;-66
2023/04/15 14:05:04;;;;;;;;;;;;;;;;;;7371523;19;837;-66
2023/04/15 14:07:32;;;;;;;;;;;;;;;;;;7370011;19;1876;-66
2023/04/15 14:10:01;;;;;;;;;;;;;;;;;;7371689;19;1243;-65
2023/04/15 14:12:29;;;;;;;;;;;;;;;;;;7372179;19;775;-64
2023/04/15 14:14:57;;;;;;;;;;;;;;;;;;7372613;19;857;-64
2023/04/15 14:17:25;;;;;;;;;;;;;;;;;;7371203;19;811;-64
2023/04/15 14:19:53;;;;;;;;;;;;;;;;;;7368001;19;1306;-64
2023/04/15 14:22:21;;;;;;;;;;;;;;;;;;7367450;19;802;-65
2023/04/15 14:24:51;;;;;;;;;;;;;;;;;;7369644;19;817;-66
2023/04/15 14:27:20;;;;;;;;;;;;;;;;;;7366647;19;1864;-65
2023/04/15 14:29:48;;;;;;;;;;;;;;;;;;7367198;19;1345;-66
2023/04/15 14:32:16;;;;;;;;;;;;;;;;;;7368489;19;822;-66
2023/04/15 14:34:44;;;;;;;;;;;;;;;;;;7368443;19;814;-66
2023/04/15 14:37:12;;;;;;;;;;;;;;;;;;7368263;19;834;-66
2023/04/15 14:39:40;;;;;;;;;;;;;;;;;;7365862;19;1332;-66
2023/04/15 14:42:09;;;;;;;;;;;;;;;;;;7367776;19;822;-66
2023/04/15 14:44:37;;;;;;;;;;;;;;;;;;7367668;19;798;-66
2023/04/15 14:47:05;;;;;;;;;;;;;;;;;;7365088;19;1833;-66
2023/04/15 14:49:34;;;;;;;;;;;;;;;;;;7365735;19;1385;-66
2023/04/15 14:52:02;;;;;;;;;;;;;;;;;;7366121;19;785;-65
2023/04/15 14:54:31;;;;;;;;;;;;;;;;;;7366753;19;1042;-66
2023/04/15 14:57:00;;;;;;;;;;;;;;;;;;7366715;19;869;-65
2023/04/15 14:59:28;;;;;;;;;;;;;;;;;;7364991;19;1282;-66
2023/04/15 15:01:56;;;;;;;;;;;;;;;;;;7366067;19;1157;-66
2023/04/15 15:04:25;;;;;;;;;;;;;;;;;;7366097;19;811;-66
2023/04/15 15:06:53;;;;;;;;;;;;;;;;;;7364776;19;1830;-66
2023/04/15 15:09:22;;;;;;;;;;;;;;;;;;7364969;19;1350;-66
2023/04/15 15:11:50;;;;;;;;;;;;;;;;;;7366603;19;799;-66
2023/04/15 15:14:18;;;;;;;;;;;;;;;;;;7367050;19;787;-65
2023/04/15 15:16:47;;;;;;;;;;;;;;;;;;7367241;19;861;-63
2023/04/15 15:19:15;;;;;;;;;;;;;;;;;;7365054;19;1266;-64
2023/04/15 15:21:43;;;;;;;;;;;;;;;;;;7367212;19;1131;-65
2023/04/15 15:24:12;;;;;;;;;;;;;;;;;;7366757;19;846;-65
2023/04/15 15:26:40;;;;;;;;;;;;;;;;;;7364289;19;1851;-65
2023/04/15 15:29:08;;;;;;;;;;;;;;;;;;7365073;19;1236;-66
2023/04/15 15:31:36;;;;;;;;;;;;;;;;;;7366998;19;865;-66
2023/04/15 15:34:04;;;;;;;;;;;;;;;;;;7366281;19;821;-66
2023/04/15 15:36:32;;;;;;;;;;;;;;;;;;7364656;19;822;-65
2023/04/15 15:39:01;;;;;;;;;;;;;;;;;;7365863;19;1354;-66
2023/04/15 15:41:29;;;;;;;;;;;;;;;;;;7365348;19;838;-64
2023/04/15 15:43:57;;;;;;;;;;;;;;;;;;7365727;19;1014;-66
2023/04/15 15:46:25;;;;;;;;;;;;;;;;;;7364601;19;1842;-66
2023/04/15 15:48:53;;;;;;;;;;;;;;;;;;7364718;19;1352;-67
2023/04/15 15:51:21;;;;;;;;;;;;;;;;;;7365295;19;835;-66
2023/04/15 15:53:50;;;;;;;;;;;;;;;;;;7365276;19;842;-66
2023/04/15 15:56:18;;;;;;;;;;;;;;;;;;7363524;19;813;-65
2023/04/15 15:58:46;;;;;;;;;;;;;;;;;;7365026;19;910;-63
2023/04/15 16:01:14;;;;;;;;;;;;;;;;;;7361489;19;844;-66
2023/04/15 16:03:42;;;;;;;;;;;;;;;;;;7365040;19;860;-66
2023/04/15 16:06:10;;;;;;;;;;;;;;;;;;7364010;19;1842;-66
2023/04/15 16:08:39;;;;;;;;;;;;;;;;;;7364869;19;779;-66
2023/04/15 16:11:07;;;;;;;;;;;;;;;;;;7362701;19;1282;-66
2023/04/15 16:13:35;;;;;;;;;;;;;;;;;;7364957;19;848;-66
2023/04/15 16:16:03;;;;;;;;;;;;;;;;;;7363809;19;852;-65
2023/04/15 16:18:31;;;;;;;;;;;;;;;;;;7363939;19;780;-66
2023/04/15 16:20:59;;;;;;;;;;;;;;;;;;7361193;19;1328;-65
2023/04/15 16:23:27;;;;;;;;;;;;;;;;;;7364063;19;817;-66
2023/04/15 16:25:56;;;;;;;;;;;;;;;;;;7364041;19;954;-66
2023/04/15 16:28:24;;;;;;;;;;;;;;;;;;7360940;19;1837;-66
2023/04/15 16:30:52;;;;;;;;;;;;;;;;;;7361889;19;1333;-67
2023/04/15 16:33:20;;;;;;;;;;;;;;;;;;7363680;19;805;-67
2023/04/15 16:35:49;;;;;;;;;;;;;;;;;;7363436;19;752;-66
2023/04/15 16:38:17;;;;;;;;;;;;;;;;;;7366432;19;876;-64
2023/04/15 16:40:45;;;;;;;;;;;;;;;;;;7368914;19;1302;-64
2023/04/15 16:43:13;;;;;;;;;;;;;;;;;;7370621;19;795;-65
2023/04/15 16:45:43;;;;;;;;;;;;;;;;;;7369166;19;779;-65
2023/04/15 16:48:11;;;;;;;;;;;;;;;;;;7367156;19;1850;-67
2023/04/15 16:50:39;;;;;;;;;;;;;;;;;;7368291;19;1286;-66
2023/04/15 16:53:07;;;;;;;;;;;;;;;;;;7370419;19;874;-65
2023/04/15 16:55:35;;;;;;;;;;;;;;;;;;7369578;19;872;-65
2023/04/15 16:58:04;;;;;;;;;;;;;;;;;;7368734;19;850;-66
2023/04/15 17:00:32;;;;;;;;;;;;;;;;;;7368254;19;1278;-65
2023/04/15 17:03:00;;;;;;;;;;;;;;;;;;7369467;19;781;-65
2023/04/15 17:05:29;;;;;;;;;;;;;;;;;;7369437;19;818;-66
2023/04/15 17:07:57;;;;;;;;;;;;;;;;;;7366989;19;1830;-66
2023/04/15 17:10:25;;;;;;;;;;;;;;;;;;7367631;19;1191;-66
2023/04/15 17:12:53;;;;;;;;;;;;;;;;;;7368553;19;850;-66
2023/04/15 17:15:21;;;;;;;;;;;;;;;;;;7370583;19;1350;-65
2023/04/15 17:17:49;;;;;;;;;;;;;;;;;;7366813;19;820;-66